sensor_id;sensor_type;location;lat;lon;timestamp;temperature;humidity
12967;DHT22;6548;49.996;8.238;2022-11-15T07:05:38;9.80;99.90
12967;DHT22;6548;49.996;8.238;2022-11-15T07:08:04;9.80;99.90
12967;DHT22;6548;49.996;8.238;2022-11-15T07:10:30;10.20;99.90
12967;DHT22;6548;49.996;8.238;2022-11-15T07:12:56;9.70;99.90
12967;DHT22;6548;49.996;8.238;2022-11-15T07:15:24;10.70;99.90
12967;DHT22;6548;49.996;8.238;2022-11-15T07:17:50;9.70;99.90
12967;DHT22;6548;49.996;8.238;2022-11-15T07:20:16;9.80;99.90
12967;DHT22;6548;49.996;8.238;2022-11-15T07:22:42;9.70;99.90
12967;DHT22;6548;49.996;8.238;2022-11-15T07:25:08;9.80;99.90
12967;DHT22;6548;49.996;8.238;2022-11-15T07:27:34;11.00;99.90
12967;DHT22;6548;49.996;8.238;2022-11-15T07:30:00;9.90;99.90
12967;DHT22;6548;49.996;8.238;2022-11-15T07:32:25;10.60;99.90
12967;DHT22;6548;49.996;8.238;2022-11-15T07:34:51;10.70;99.90
12967;DHT22;6548;49.996;8.238;2022-11-15T07:37:17;11.50;99.90
12967;DHT22;6548;49.996;8.238;2022-11-15T07:39:43;10.10;99.90
12967;DHT22;6548;49.996;8.238;2022-11-15T07:42:09;10.50;99.90
12967;DHT22;6548;49.996;8.238;2022-11-15T07:44:53;10.30;99.90
12967;DHT22;6548;49.996;8.238;2022-11-15T07:47:18;11.70;99.90
12967;DHT22;6548;49.996;8.238;2022-11-15T07:49:44;10.40;99.90
12967;DHT22;6548;49.996;8.238;2022-11-15T07:52:11;10.50;99.90
12967;DHT22;6548;49.996;8.238;2022-11-15T07:54:37;10.60;99.90
12967;DHT22;6548;49.996;8.238;2022-11-15T07:57:03;10.70;99.90
12967;DHT22;6548;49.996;8.238;2022-11-15T07:59:29;12.10;99.90
12967;DHT22;6548;49.996;8.238;2022-11-15T08:01:55;11.90;99.90
12967;DHT22;6548;49.996;8.238;2022-11-15T08:04:21;10.90;99.90
12967;DHT22;6548;49.996;8.238;2022-11-15T08:06:46;11.90;99.90
12967;DHT22;6548;49.996;8.238;2022-11-15T08:09:12;12.20;99.90
12967;DHT22;6548;49.996;8.238;2022-11-15T08:11:38;12.30;99.90
12967;DHT22;6548;49.996;8.238;2022-11-15T08:14:03;11.10;99.90
12967;DHT22;6548;49.996;8.238;2022-11-15T08:16:29;11.00;99.90
12967;DHT22;6548;49.996;8.238;2022-11-15T08:18:54;10.90;99.90
12967;DHT22;6548;49.996;8.238;2022-11-15T08:21:21;10.50;99.90
12967;DHT22;6548;49.996;8.238;2022-11-15T08:23:46;10.70;99.90
12967;DHT22;6548;49.996;8.238;2022-11-15T08:26:12;10.80;99.90
12967;DHT22;6548;49.996;8.238;2022-11-15T08:28:38;11.00;99.90
12967;DHT22;6548;49.996;8.238;2022-11-15T08:31:04;12.00;99.90
12967;DHT22;6548;49.996;8.238;2022-11-15T08:33:30;11.20;99.90
12967;DHT22;6548;49.996;8.238;2022-11-15T08:35:57;11.10;99.90
12967;DHT22;6548;49.996;8.238;2022-11-15T08:38:23;11.30;99.90
12967;DHT22;6548;49.996;8.238;2022-11-15T08:40:52;11.40;99.90
12967;DHT22;6548;49.996;8.238;2022-11-15T08:43:18;11.40;99.90
12967;DHT22;6548;49.996;8.238;2022-11-15T08:45:44;12.70;99.90
12967;DHT22;6548;49.996;8.238;2022-11-15T08:48:10;12.70;99.90
12967;DHT22;6548;49.996;8.238;2022-11-15T08:50:36;11.20;99.90
12967;DHT22;6548;49.996;8.238;2022-11-15T08:53:08;11.80;99.90
12967;DHT22;6548;49.996;8.238;2022-11-15T08:55:36;12.00;99.90
12967;DHT22;6548;49.996;8.238;2022-11-15T08:58:02;11.70;99.90
12967;DHT22;6548;49.996;8.238;2022-11-15T09:00:29;11.50;99.90
12967;DHT22;6548;49.996;8.238;2022-11-15T09:02:55;11.20;99.90
12967;DHT22;6548;49.996;8.238;2022-11-15T09:05:21;11.10;99.90
12967;DHT22;6548;49.996;8.238;2022-11-15T09:07:46;11.20;99.90
12967;DHT22;6548;49.996;8.238;2022-11-15T09:10:12;11.70;99.90
12967;DHT22;6548;49.996;8.238;2022-11-15T09:12:37;11.30;99.90
12967;DHT22;6548;49.996;8.238;2022-11-15T09:15:04;12.80;99.90
12967;DHT22;6548;49.996;8.238;2022-11-15T09:17:30;11.30;99.90
12967;DHT22;6548;49.996;8.238;2022-11-15T09:19:56;12.10;99.90
12967;DHT22;6548;49.996;8.238;2022-11-15T09:22:21;11.80;99.90
12967;DHT22;6548;49.996;8.238;2022-11-15T09:24:47;11.80;99.90
12967;DHT22;6548;49.996;8.238;2022-11-15T09:27:13;12.00;99.90
12967;DHT22;6548;49.996;8.238;2022-11-15T09:29:38;11.80;99.90
12967;DHT22;6548;49.996;8.238;2022-11-15T09:32:04;11.60;99.90
12967;DHT22;6548;49.996;8.238;2022-11-15T09:34:30;11.60;99.90
12967;DHT22;6548;49.996;8.238;2022-11-15T09:36:55;12.80;99.90
12967;DHT22;6548;49.996;8.238;2022-11-15T09:39:21;13.00;99.90
12967;DHT22;6548;49.996;8.238;2022-11-15T09:42:19;12.80;99.90
12967;DHT22;6548;49.996;8.238;2022-11-15T09:45:06;12.20;99.90
12967;DHT22;6548;49.996;8.238;2022-11-15T09:50:12;12.20;99.90
12967;DHT22;6548;49.996;8.238;2022-11-15T09:52:42;12.10;99.90
12967;DHT22;6548;49.996;8.238;2022-11-15T09:55:11;11.90;99.90
12967;DHT22;6548;49.996;8.238;2022-11-15T09:57:46;11.90;99.90
12967;DHT22;6548;49.996;8.238;2022-11-15T10:00:40;11.90;99.90
12967;DHT22;6548;49.996;8.238;2022-11-15T10:03:12;11.90;99.90
12967;DHT22;6548;49.996;8.238;2022-11-15T10:05:50;11.90;99.90
12967;DHT22;6548;49.996;8.238;2022-11-15T10:08:26;12.00;99.90
12967;DHT22;6548;49.996;8.238;2022-11-15T10:11:03;12.00;99.90
12967;DHT22;6548;49.996;8.238;2022-11-15T10:13:37;12.00;99.90
12967;DHT22;6548;49.996;8.238;2022-11-15T10:21:57;12.10;99.90
12967;DHT22;6548;49.996;8.238;2022-11-15T10:24:27;12.20;99.90
12967;DHT22;6548;49.996;8.238;2022-11-15T10:26:56;12.00;99.90
12967;DHT22;6548;49.996;8.238;2022-11-15T10:29:24;12.10;99.90
12967;DHT22;6548;49.996;8.238;2022-11-15T10:31:50;11.90;99.90
12967;DHT22;6548;49.996;8.238;2022-11-15T10:34:22;12.10;99.90
12967;DHT22;6548;49.996;8.238;2022-11-15T10:36:55;12.30;99.90
12967;DHT22;6548;49.996;8.238;2022-11-15T10:39:20;12.30;99.90
12967;DHT22;6548;49.996;8.238;2022-11-15T10:41:46;12.40;99.90
12967;DHT22;6548;49.996;8.238;2022-11-15T10:44:22;12.50;99.90
12967;DHT22;6548;49.996;8.238;2022-11-15T10:47:04;12.40;99.90
12967;DHT22;6548;49.996;8.238;2022-11-15T10:49:32;12.40;99.90
12967;DHT22;6548;49.996;8.238;2022-11-15T10:52:17;12.40;99.90
12967;DHT22;6548;49.996;8.238;2022-11-15T10:54:54;12.50;99.90
12967;DHT22;6548;49.996;8.238;2022-11-15T10:57:23;12.70;99.90
12967;DHT22;6548;49.996;8.238;2022-11-15T10:59:53;12.50;99.90
12967;DHT22;6548;49.996;8.238;2022-11-15T11:02:43;12.60;99.90
12967;DHT22;6548;49.996;8.238;2022-11-15T11:05:34;12.60;99.90
12967;DHT22;6548;49.996;8.238;2022-11-15T11:08:08;12.50;99.90
12967;DHT22;6548;49.996;8.238;2022-11-15T11:13:34;12.60;99.90
12967;DHT22;6548;49.996;8.238;2022-11-15T11:21:26;12.60;99.90
12967;DHT22;6548;49.996;8.238;2022-11-15T11:26:48;12.40;99.90
12967;DHT22;6548;49.996;8.238;2022-11-15T11:32:22;12.20;99.90
12967;DHT22;6548;49.996;8.238;2022-11-15T11:40:28;12.50;99.90
12967;DHT22;6548;49.996;8.238;2022-11-15T11:51:39;12.70;99.90
12967;DHT22;6548;49.996;8.238;2022-11-15T11:54:14;12.70;99.90
12967;DHT22;6548;49.996;8.238;2022-11-15T11:56:44;13.80;99.90
12967;DHT22;6548;49.996;8.238;2022-11-15T12:01:47;12.70;99.90
12967;DHT22;6548;49.996;8.238;2022-11-15T12:04:30;13.20;99.90
12967;DHT22;6548;49.996;8.238;2022-11-15T12:09:33;12.50;99.90
12967;DHT22;6548;49.996;8.238;2022-11-15T12:12:41;12.60;99.90
12967;DHT22;6548;49.996;8.238;2022-11-15T12:15:29;12.50;99.90
12967;DHT22;6548;49.996;8.238;2022-11-15T12:17:57;12.40;99.90
12967;DHT22;6548;49.996;8.238;2022-11-15T12:20:32;13.40;99.90
12967;DHT22;6548;49.996;8.238;2022-11-15T12:23:16;12.50;99.90
12967;DHT22;6548;49.996;8.238;2022-11-15T12:26:05;12.60;99.90
12967;DHT22;6548;49.996;8.238;2022-11-15T12:28:54;12.70;99.90
12967;DHT22;6548;49.996;8.238;2022-11-15T12:33:56;12.70;99.90
12967;DHT22;6548;49.996;8.238;2022-11-15T12:38:59;12.60;99.90
12967;DHT22;6548;49.996;8.238;2022-11-15T12:41:29;12.60;99.90
12967;DHT22;6548;49.996;8.238;2022-11-15T12:43:56;12.50;99.90
12967;DHT22;6548;49.996;8.238;2022-11-15T12:48:59;13.80;99.90
12967;DHT22;6548;49.996;8.238;2022-11-15T13:02:34;12.70;99.90
12967;DHT22;6548;49.996;8.238;2022-11-15T13:30:41;12.50;99.90
12967;DHT22;6548;49.996;8.238;2022-11-15T13:33:30;12.50;99.90
12967;DHT22;6548;49.996;8.238;2022-11-15T13:35:58;12.50;99.90
12967;DHT22;6548;49.996;8.238;2022-11-15T13:40:50;12.60;99.90
12967;DHT22;6548;49.996;8.238;2022-11-15T13:43:35;12.60;99.90
12967;DHT22;6548;49.996;8.238;2022-11-15T13:46:10;12.60;99.90
12967;DHT22;6548;49.996;8.238;2022-11-15T13:48:36;12.60;99.90
12967;DHT22;6548;49.996;8.238;2022-11-15T13:51:05;12.60;99.90
12967;DHT22;6548;49.996;8.238;2022-11-15T13:53:33;13.20;99.90
12967;DHT22;6548;49.996;8.238;2022-11-15T13:56:00;12.60;99.90
12967;DHT22;6548;49.996;8.238;2022-11-15T13:58:27;12.60;99.90
12967;DHT22;6548;49.996;8.238;2022-11-15T14:01:03;12.50;99.90
12967;DHT22;6548;49.996;8.238;2022-11-15T14:03:33;12.50;99.90
12967;DHT22;6548;49.996;8.238;2022-11-15T14:06:13;12.90;99.90
12967;DHT22;6548;49.996;8.238;2022-11-15T14:11:25;12.60;99.90
12967;DHT22;6548;49.996;8.238;2022-11-15T14:16:40;12.70;99.90
12967;DHT22;6548;49.996;8.238;2022-11-15T14:19:13;12.50;99.90
12967;DHT22;6548;49.996;8.238;2022-11-15T14:22:08;12.50;99.90
12967;DHT22;6548;49.996;8.238;2022-11-15T14:24:35;12.50;99.90
12967;DHT22;6548;49.996;8.238;2022-11-15T14:27:26;12.50;99.90
12967;DHT22;6548;49.996;8.238;2022-11-15T14:29:53;12.40;99.90
12967;DHT22;6548;49.996;8.238;2022-11-15T14:32:29;13.30;99.90
12967;DHT22;6548;49.996;8.238;2022-11-15T14:34:58;12.50;99.90
12967;DHT22;6548;49.996;8.238;2022-11-15T14:37:30;12.50;99.90
12967;DHT22;6548;49.996;8.238;2022-11-15T14:40:01;12.50;99.90
12967;DHT22;6548;49.996;8.238;2022-11-15T14:42:27;12.50;99.90
12967;DHT22;6548;49.996;8.238;2022-11-15T14:44:53;12.50;99.90
12967;DHT22;6548;49.996;8.238;2022-11-15T14:47:19;12.50;99.90
12967;DHT22;6548;49.996;8.238;2022-11-15T14:49:45;12.40;99.90
12967;DHT22;6548;49.996;8.238;2022-11-15T14:52:28;12.40;99.90
12967;DHT22;6548;49.996;8.238;2022-11-15T14:54:59;12.40;99.90
12967;DHT22;6548;49.996;8.238;2022-11-15T14:57:32;13.40;99.90
12967;DHT22;6548;49.996;8.238;2022-11-15T14:59:58;12.40;99.90
12967;DHT22;6548;49.996;8.238;2022-11-15T15:02:25;12.40;99.90
12967;DHT22;6548;49.996;8.238;2022-11-15T15:04:52;12.40;99.90
12967;DHT22;6548;49.996;8.238;2022-11-15T15:07:19;12.40;99.90
12967;DHT22;6548;49.996;8.238;2022-11-15T15:09:45;12.60;99.90
12967;DHT22;6548;49.996;8.238;2022-11-15T15:12:22;12.60;99.90
12967;DHT22;6548;49.996;8.238;2022-11-15T15:14:49;12.40;99.90
12967;DHT22;6548;49.996;8.238;2022-11-15T15:17:16;12.40;99.90
12967;DHT22;6548;49.996;8.238;2022-11-15T15:19:42;12.40;99.90
12967;DHT22;6548;49.996;8.238;2022-11-15T15:22:19;12.40;99.90
12967;DHT22;6548;49.996;8.238;2022-11-15T15:24:47;12.40;99.90
12967;DHT22;6548;49.996;8.238;2022-11-15T15:27:13;12.40;99.90
12967;DHT22;6548;49.996;8.238;2022-11-15T15:29:39;12.80;99.90
12967;DHT22;6548;49.996;8.238;2022-11-15T15:32:05;12.30;99.90
12967;DHT22;6548;49.996;8.238;2022-11-15T15:34:32;12.30;99.90
12967;DHT22;6548;49.996;8.238;2022-11-15T15:37:19;12.30;99.90
12967;DHT22;6548;49.996;8.238;2022-11-15T15:39:44;12.20;99.90
12967;DHT22;6548;49.996;8.238;2022-11-15T15:42:10;12.20;99.90
12967;DHT22;6548;49.996;8.238;2022-11-15T15:44:36;12.10;99.90
12967;DHT22;6548;49.996;8.238;2022-11-15T15:47:01;12.10;99.90
12967;DHT22;6548;49.996;8.238;2022-11-15T15:49:27;12.10;99.90
12967;DHT22;6548;49.996;8.238;2022-11-15T15:51:52;12.10;99.90
12967;DHT22;6548;49.996;8.238;2022-11-15T15:54:18;12.00;99.90
12967;DHT22;6548;49.996;8.238;2022-11-15T15:56:43;12.10;99.90
12967;DHT22;6548;49.996;8.238;2022-11-15T15:59:09;12.00;99.90
12967;DHT22;6548;49.996;8.238;2022-11-15T16:01:34;12.00;99.90
12967;DHT22;6548;49.996;8.238;2022-11-15T16:04:00;12.00;99.90
12967;DHT22;6548;49.996;8.238;2022-11-15T16:06:36;11.90;99.90
12967;DHT22;6548;49.996;8.238;2022-11-15T16:09:03;11.90;99.90
12967;DHT22;6548;49.996;8.238;2022-11-15T16:11:29;12.10;99.90
12967;DHT22;6548;49.996;8.238;2022-11-15T16:13:55;11.90;99.90
12967;DHT22;6548;49.996;8.238;2022-11-15T16:16:21;12.20;99.90
12967;DHT22;6548;49.996;8.238;2022-11-15T16:18:47;11.80;99.90
12967;DHT22;6548;49.996;8.238;2022-11-15T16:21:13;11.80;99.90
12967;DHT22;6548;49.996;8.238;2022-11-15T16:23:38;11.80;99.90
12967;DHT22;6548;49.996;8.238;2022-11-15T16:26:18;11.80;99.90
12967;DHT22;6548;49.996;8.238;2022-11-15T16:28:44;11.70;99.90
12967;DHT22;6548;49.996;8.238;2022-11-15T16:31:11;11.70;99.90
12967;DHT22;6548;49.996;8.238;2022-11-15T16:33:38;11.70;99.90
12967;DHT22;6548;49.996;8.238;2022-11-15T16:36:05;11.80;99.90
12967;DHT22;6548;49.996;8.238;2022-11-15T16:38:31;11.60;99.90
12967;DHT22;6548;49.996;8.238;2022-11-15T16:40:57;11.60;99.90
12967;DHT22;6548;49.996;8.238;2022-11-15T16:43:23;11.50;99.90
12967;DHT22;6548;49.996;8.238;2022-11-15T16:45:49;11.60;99.90
12967;DHT22;6548;49.996;8.238;2022-11-15T16:48:26;11.60;99.90
12967;DHT22;6548;49.996;8.238;2022-11-15T16:50:56;11.50;99.90
12967;DHT22;6548;49.996;8.238;2022-11-15T16:53:22;11.50;99.90
12967;DHT22;6548;49.996;8.238;2022-11-15T16:55:48;11.50;99.90
12967;DHT22;6548;49.996;8.238;2022-11-15T16:58:13;11.50;99.90
12967;DHT22;6548;49.996;8.238;2022-11-15T17:00:39;11.50;99.90
12967;DHT22;6548;49.996;8.238;2022-11-15T17:03:05;11.50;99.90
12967;DHT22;6548;49.996;8.238;2022-11-15T17:05:31;11.50;99.90
12967;DHT22;6548;49.996;8.238;2022-11-15T17:07:57;11.50;99.90
12967;DHT22;6548;49.996;8.238;2022-11-15T17:10:24;11.60;99.90
12967;DHT22;6548;49.996;8.238;2022-11-15T17:12:51;11.50;99.90
12967;DHT22;6548;49.996;8.238;2022-11-15T17:15:17;11.40;99.90
12967;DHT22;6548;49.996;8.238;2022-11-15T17:17:43;11.40;99.90
12967;DHT22;6548;49.996;8.238;2022-11-15T17:20:15;11.30;99.90
12967;DHT22;6548;49.996;8.238;2022-11-15T17:22:40;11.30;99.90
12967;DHT22;6548;49.996;8.238;2022-11-15T17:25:06;11.30;99.90
12967;DHT22;6548;49.996;8.238;2022-11-15T17:27:32;11.20;99.90
12967;DHT22;6548;49.996;8.238;2022-11-15T17:29:57;11.20;99.90
12967;DHT22;6548;49.996;8.238;2022-11-15T17:32:23;11.20;99.90
12967;DHT22;6548;49.996;8.238;2022-11-15T17:34:48;11.10;99.90
12967;DHT22;6548;49.996;8.238;2022-11-15T17:37:14;11.10;99.90
12967;DHT22;6548;49.996;8.238;2022-11-15T17:39:39;11.00;99.90
12967;DHT22;6548;49.996;8.238;2022-11-15T17:42:05;11.10;99.90
12967;DHT22;6548;49.996;8.238;2022-11-15T17:44:31;11.60;99.90
12967;DHT22;6548;49.996;8.238;2022-11-15T17:46:57;11.10;99.90
12967;DHT22;6548;49.996;8.238;2022-11-15T17:49:23;11.20;99.90
12967;DHT22;6548;49.996;8.238;2022-11-15T17:51:48;11.20;99.90
12967;DHT22;6548;49.996;8.238;2022-11-15T17:54:14;11.20;99.90
12967;DHT22;6548;49.996;8.238;2022-11-15T17:56:40;11.30;99.90
12967;DHT22;6548;49.996;8.238;2022-11-15T17:59:06;11.30;99.90
12967;DHT22;6548;49.996;8.238;2022-11-15T18:01:33;11.20;99.90
12967;DHT22;6548;49.996;8.238;2022-11-15T18:04:03;11.40;99.90
12967;DHT22;6548;49.996;8.238;2022-11-15T18:06:31;11.40;99.90
12967;DHT22;6548;49.996;8.238;2022-11-15T18:08:57;11.40;99.90
12967;DHT22;6548;49.996;8.238;2022-11-15T18:11:28;11.40;99.90
12967;DHT22;6548;49.996;8.238;2022-11-15T18:13:56;11.50;99.90
12967;DHT22;6548;49.996;8.238;2022-11-15T18:16:24;12.10;99.90
12967;DHT22;6548;49.996;8.238;2022-11-15T18:18:50;11.40;99.90
12967;DHT22;6548;49.996;8.238;2022-11-15T18:21:21;11.50;99.90
12967;DHT22;6548;49.996;8.238;2022-11-15T18:23:48;11.40;99.90
12967;DHT22;6548;49.996;8.238;2022-11-15T18:26:15;11.40;99.90
12967;DHT22;6548;49.996;8.238;2022-11-15T18:28:47;11.40;99.90
12967;DHT22;6548;49.996;8.238;2022-11-15T18:33:44;11.50;99.90
12967;DHT22;6548;49.996;8.238;2022-11-15T18:36:19;11.50;99.90
12967;DHT22;6548;49.996;8.238;2022-11-15T18:38:45;11.50;99.90
12967;DHT22;6548;49.996;8.238;2022-11-15T18:41:15;11.50;99.90
12967;DHT22;6548;49.996;8.238;2022-11-15T18:43:45;11.40;99.90
12967;DHT22;6548;49.996;8.238;2022-11-15T18:46:16;11.50;99.90
12967;DHT22;6548;49.996;8.238;2022-11-15T18:48:43;11.40;99.90
12967;DHT22;6548;49.996;8.238;2022-11-15T18:51:15;11.40;99.90
12967;DHT22;6548;49.996;8.238;2022-11-15T18:53:42;11.40;99.90
12967;DHT22;6548;49.996;8.238;2022-11-15T18:56:09;12.00;99.90
12967;DHT22;6548;49.996;8.238;2022-11-15T18:58:39;11.40;99.90
12967;DHT22;6548;49.996;8.238;2022-11-15T19:01:11;11.30;99.90
12967;DHT22;6548;49.996;8.238;2022-11-15T19:03:39;11.30;99.90
12967;DHT22;6548;49.996;8.238;2022-11-15T19:06:08;11.90;99.90
12967;DHT22;6548;49.996;8.238;2022-11-15T19:08:35;12.20;99.90
12967;DHT22;6548;49.996;8.238;2022-11-15T19:11:21;12.40;99.90
12967;DHT22;6548;49.996;8.238;2022-11-15T19:13:56;11.10;99.90
12967;DHT22;6548;49.996;8.238;2022-11-15T19:16:22;11.10;99.90
12967;DHT22;6548;49.996;8.238;2022-11-15T19:18:56;11.10;99.90
12967;DHT22;6548;49.996;8.238;2022-11-15T19:21:23;11.10;99.90
12967;DHT22;6548;49.996;8.238;2022-11-15T19:23:49;11.10;99.90
12967;DHT22;6548;49.996;8.238;2022-11-15T19:26:15;11.10;99.90
12967;DHT22;6548;49.996;8.238;2022-11-15T19:28:42;12.10;99.90
12967;DHT22;6548;49.996;8.238;2022-11-15T19:31:11;11.10;99.90
12967;DHT22;6548;49.996;8.238;2022-11-15T19:33:38;11.10;99.90
12967;DHT22;6548;49.996;8.238;2022-11-15T19:36:06;11.10;99.90
12967;DHT22;6548;49.996;8.238;2022-11-15T19:38:33;11.00;99.90
12967;DHT22;6548;49.996;8.238;2022-11-15T19:41:01;11.10;99.90
12967;DHT22;6548;49.996;8.238;2022-11-15T19:43:27;11.60;99.90
12967;DHT22;6548;49.996;8.238;2022-11-15T19:45:57;11.10;99.90
12967;DHT22;6548;49.996;8.238;2022-11-15T19:48:24;11.60;99.90
12967;DHT22;6548;49.996;8.238;2022-11-15T19:50:50;11.00;99.90
12967;DHT22;6548;49.996;8.238;2022-11-15T19:53:16;11.70;99.90
12967;DHT22;6548;49.996;8.238;2022-11-15T19:56:16;10.90;99.90
12967;DHT22;6548;49.996;8.238;2022-11-15T19:58:38;11.00;99.90
12967;DHT22;6548;49.996;8.238;2022-11-15T20:01:07;10.90;99.90
12967;DHT22;6548;49.996;8.238;2022-11-15T20:03:34;11.40;99.90
12967;DHT22;6548;49.996;8.238;2022-11-15T20:06:05;10.90;99.90
12967;DHT22;6548;49.996;8.238;2022-11-15T20:08:31;10.90;99.90
12967;DHT22;6548;49.996;8.238;2022-11-15T20:10:58;10.90;99.90
12967;DHT22;6548;49.996;8.238;2022-11-15T20:13:24;10.90;99.90
12967;DHT22;6548;49.996;8.238;2022-11-15T20:15:50;10.90;99.90
12967;DHT22;6548;49.996;8.238;2022-11-15T20:18:16;10.90;99.90
12967;DHT22;6548;49.996;8.238;2022-11-15T20:20:42;11.80;99.90
12967;DHT22;6548;49.996;8.238;2022-11-15T20:23:08;10.80;99.90
12967;DHT22;6548;49.996;8.238;2022-11-15T20:25:34;10.90;99.90
12967;DHT22;6548;49.996;8.238;2022-11-15T20:28:06;10.90;99.90
12967;DHT22;6548;49.996;8.238;2022-11-15T20:30:35;10.80;99.90
12967;DHT22;6548;49.996;8.238;2022-11-15T20:33:01;10.80;99.90
12967;DHT22;6548;49.996;8.238;2022-11-15T20:35:27;10.80;99.90
12967;DHT22;6548;49.996;8.238;2022-11-15T20:37:52;11.50;99.90
12967;DHT22;6548;49.996;8.238;2022-11-15T20:40:18;10.90;99.90
12967;DHT22;6548;49.996;8.238;2022-11-15T20:42:43;10.70;99.90
12967;DHT22;6548;49.996;8.238;2022-11-15T20:45:09;10.70;99.90
12967;DHT22;6548;49.996;8.238;2022-11-15T20:47:35;10.80;99.90
12967;DHT22;6548;49.996;8.238;2022-11-15T20:50:00;10.80;99.90
12967;DHT22;6548;49.996;8.238;2022-11-15T20:52:26;10.80;99.90
12967;DHT22;6548;49.996;8.238;2022-11-15T20:54:51;11.30;99.90
12967;DHT22;6548;49.996;8.238;2022-11-15T20:57:17;10.70;99.90
12967;DHT22;6548;49.996;8.238;2022-11-15T20:59:43;10.70;99.90
12967;DHT22;6548;49.996;8.238;2022-11-15T21:02:13;10.70;99.90
12967;DHT22;6548;49.996;8.238;2022-11-15T21:04:38;10.70;99.90
12967;DHT22;6548;49.996;8.238;2022-11-15T21:07:04;10.70;99.90
12967;DHT22;6548;49.996;8.238;2022-11-15T21:09:45;10.70;99.90
12967;DHT22;6548;49.996;8.238;2022-11-15T21:12:30;10.70;99.90
12967;DHT22;6548;49.996;8.238;2022-11-15T21:14:56;10.70;99.90
12967;DHT22;6548;49.996;8.238;2022-11-15T21:17:22;10.70;99.90
12967;DHT22;6548;49.996;8.238;2022-11-15T21:19:47;10.70;99.90
12967;DHT22;6548;49.996;8.238;2022-11-15T21:22:13;10.70;99.90
12967;DHT22;6548;49.996;8.238;2022-11-15T23:49:46;10.50;99.90
12967;DHT22;6548;49.996;8.238;2022-11-15T23:52:27;10.40;99.90
12967;DHT22;6548;49.996;8.238;2022-11-15T23:55:01;11.00;99.90
12967;DHT22;6548;49.996;8.238;2022-11-15T23:57:54;10.40;99.90
